Time;durP1;ratioP1;P1;durP2;ratioP2;P2;SDS_P1;SDS_P2;PMS_P1;PMS_P2;Temp;Humidity;BMP_temperature;BMP_pressure;BME280_temperature;BME280_humidity;BME280_pressure;Samples;Min_cycle;Max_cycle;Signal;HPM_P1;HPM_P2
2023/08/29 00:00:26;;;;;;;5.72;3.92;;;;;;;15.16;100.00;101169.13;5274476;28;20032;-73
2023/08/29 00:03:03;;;;;;;5.10;3.65;;;;;;;15.20;100.00;101173.13;5276612;28;20104;-73
2023/08/29 00:05:34;;;;;;;4.30;3.60;;;;;;;15.13;100.00;101173.88;5270320;28;20076;-73
2023/08/29 00:08:06;;;;;;;3.53;3.22;;;;;;;15.12;100.00;101164.31;5278609;28;20016;-73
2023/08/29 00:10:37;;;;;;;3.90;3.50;;;;;;;15.08;100.00;101171.69;5279965;28;20288;-73
2023/08/29 00:13:08;;;;;;;3.78;3.47;;;;;;;15.05;100.00;101174.63;5280582;28;20032;-73
2023/08/29 00:15:39;;;;;;;4.22;3.40;;;;;;;14.99;100.00;101169.94;5278301;28;20032;-73
2023/08/29 00:18:11;;;;;;;4.13;3.40;;;;;;;15.00;100.00;101166.31;5280008;28;20524;-73
2023/08/29 00:20:43;;;;;;;5.05;3.65;;;;;;;14.96;100.00;101171.06;5278904;28;20039;-73
2023/08/29 00:23:14;;;;;;;3.90;3.50;;;;;;;14.92;100.00;101163.59;5282123;28;20062;-73
2023/08/29 00:25:46;;;;;;;4.20;3.72;;;;;;;14.89;100.00;101154.22;5279884;28;20025;-73
2023/08/29 00:28:17;;;;;;;5.10;4.10;;;;;;;14.86;100.00;101151.88;5276767;28;20037;-73
2023/08/29 00:30:49;;;;;;;5.10;3.75;;;;;;;14.81;100.00;101148.81;5279096;28;20033;-73
2023/08/29 00:33:20;;;;;;;7.00;4.30;;;;;;;14.83;100.00;101149.53;5280169;28;20751;-73
2023/08/29 00:35:51;;;;;;;4.65;3.58;;;;;;;14.80;100.00;101148.00;5282330;28;20028;-73
2023/08/29 00:38:22;;;;;;;4.28;3.80;;;;;;;14.74;100.00;101155.72;5280845;28;20040;-74
2023/08/29 00:40:54;;;;;;;4.40;3.75;;;;;;;14.72;100.00;101145.28;5274242;28;20028;-74
2023/08/29 00:43:25;;;;;;;4.68;3.50;;;;;;;14.68;100.00;101146.56;5272412;28;20032;-75
2023/08/29 00:45:58;;;;;;;5.18;4.07;;;;;;;14.70;100.00;101152.53;5273368;28;20204;-74
2023/08/29 00:48:31;;;;;;;3.90;3.60;;;;;;;14.70;100.00;101152.53;5274201;28;20682;-73
2023/08/29 00:51:02;;;;;;;5.40;3.83;;;;;;;14.69;100.00;101148.22;5281766;28;20136;-73
2023/08/29 00:53:35;;;;;;;7.43;4.30;;;;;;;14.64;100.00;101147.03;5277999;28;20036;-73
2023/08/29 00:56:06;;;;;;;4.50;4.10;;;;;;;14.63;100.00;101148.00;5255352;28;20432;-75
2023/08/29 00:58:39;;;;;;;5.03;4.50;;;;;;;14.53;100.00;101154.16;5271664;28;20086;-75
2023/08/29 01:01:12;;;;;;;5.05;4.32;;;;;;;14.53;100.00;101148.06;5272725;28;20030;-73
2023/08/29 01:03:43;;;;;;;;;;;;;;;15.34;100.00;101142.69;5252164;28;20099;-75
2023/08/29 01:06:15;;;;;;;4.75;4.25;;;;;;;14.53;100.00;101138.34;5272575;28;19977;-73
2023/08/29 01:08:47;;;;;;;4.55;4.15;;;;;;;14.43;100.00;101139.34;5274685;28;20478;-74
2023/08/29 01:11:28;;;;;;;6.53;4.50;;;;;;;14.62;100.00;101133.97;5272796;28;20127;-74
2023/08/29 01:14:15;;;;;;;5.28;4.40;;;;;;;14.63;100.00;101143.56;5270236;28;20463;-73
2023/08/29 01:17:04;;;;;;;5.47;4.10;;;;;;;14.66;100.00;101140.63;5275549;28;20024;-73
2023/08/29 01:19:40;;;;;;;4.60;4.20;;;;;;;14.44;100.00;101143.66;5276211;28;20033;-73
2023/08/29 01:22:28;;;;;;;5.72;4.50;;;;;;;14.59;100.00;101145.66;5275741;28;20024;-73
2023/08/29 01:25:11;;;;;;;6.60;4.55;;;;;;;14.49;100.00;101142.25;5273915;28;20166;-73
2023/08/29 01:27:43;;;;;;;6.15;5.13;;;;;;;14.34;100.00;101143.69;5278210;28;20139;-75
2023/08/29 01:30:15;;;;;;;7.32;4.53;;;;;;;14.28;100.00;101149.53;5275715;28;20042;-73
2023/08/29 01:32:46;;;;;;;5.47;4.30;;;;;;;14.24;100.00;101150.81;5270788;28;20028;-73
2023/08/29 01:35:17;;;;;;;4.70;4.25;;;;;;;14.20;100.00;101144.19;5271534;28;20089;-74
2023/08/29 01:37:49;;;;;;;6.20;4.22;;;;;;;14.10;100.00;101136.34;5277379;28;20039;-73
2023/08/29 01:40:20;;;;;;;4.90;4.40;;;;;;;14.11;100.00;101146.72;5275421;28;20508;-74
2023/08/29 01:42:51;;;;;;;5.05;4.25;;;;;;;14.08;100.00;101154.09;5273363;28;20387;-74
2023/08/29 01:45:23;;;;;;;4.78;3.97;;;;;;;14.09;100.00;101153.97;5270418;28;20583;-73
2023/08/29 01:47:54;;;;;;;4.88;4.38;;;;;;;14.07;100.00;101157.69;5276091;28;20028;-75
2023/08/29 01:50:27;;;;;;;4.55;3.80;;;;;;;14.04;100.00;101147.44;5272259;28;20551;-74
2023/08/29 01:52:59;;;;;;;;;;;;;;;14.88;100.00;101149.06;5271443;28;20027;-74
2023/08/29 01:55:32;;;;;;;4.07;3.67;;;;;;;14.08;100.00;101152.28;5274787;28;19920;-73
2023/08/29 01:58:05;;;;;;;4.90;4.05;;;;;;;14.08;100.00;101159.34;5272036;28;20020;-74
2023/08/29 02:00:36;;;;;;;4.15;3.72;;;;;;;13.98;100.00;101153.28;5268895;28;20036;-73
2023/08/29 02:03:09;;;;;;;6.40;4.03;;;;;;;14.02;100.00;101159.94;5273258;28;20024;-73
2023/08/29 02:05:41;;;;;;;5.80;4.10;;;;;;;13.95;100.00;101154.41;5273972;28;20039;-74
2023/08/29 02:08:13;;;;;;;5.40;3.87;;;;;;;13.90;100.00;101164.53;5271832;28;20125;-74
2023/08/29 02:10:44;;;;;;;4.93;4.20;;;;;;;13.88;100.00;101155.97;5271167;28;20282;-73
2023/08/29 02:13:15;;;;;;;4.90;4.30;;;;;;;13.89;100.00;101165.53;5271746;28;20387;-74
2023/08/29 02:15:46;;;;;;;5.07;4.47;;;;;;;13.91;100.00;101162.75;5269523;28;20032;-75
2023/08/29 02:18:18;;;;;;;4.22;3.83;;;;;;;13.91;100.00;101160.97;5270518;28;20767;-73
2023/08/29 02:20:49;;;;;;;4.72;4.18;;;;;;;13.85;100.00;101164.97;5271916;28;20032;-75
2023/08/29 02:23:20;;;;;;;4.55;4.13;;;;;;;13.84;100.00;101173.84;5268662;28;20024;-73
2023/08/29 02:26:10;;;;;;;4.40;4.00;;;;;;;14.16;100.00;101177.06;5273665;28;20135;-74
2023/08/29 02:28:41;;;;;;;5.28;4.32;;;;;;;13.82;100.00;101181.06;5268440;28;20039;-74
2023/08/29 02:31:13;;;;;;;4.88;4.38;;;;;;;13.80;100.00;101179.56;5271213;28;20359;-74
2023/08/29 02:33:44;;;;;;;5.00;4.18;;;;;;;13.78;100.00;101179.69;5267730;28;20062;-73
2023/08/29 02:36:15;;;;;;;4.90;4.40;;;;;;;13.76;100.00;101181.66;5275136;28;20413;-74
2023/08/29 02:38:47;;;;;;;6.13;4.15;;;;;;;13.77;100.00;101193.00;5271692;28;20052;-74
2023/08/29 02:41:18;;;;;;;6.25;4.22;;;;;;;13.73;100.00;101194.28;5272942;28;20037;-73
2023/08/29 02:43:49;;;;;;;6.03;4.90;;;;;;;13.70;100.00;101200.63;5267224;28;20052;-74
2023/08/29 02:46:21;;;;;;;6.38;4.75;;;;;;;13.67;100.00;101198.28;5271606;28;20032;-74
2023/08/29 02:48:52;;;;;;;6.40;4.93;;;;;;;13.69;100.00;101206.88;5270661;28;20028;-75
2023/08/29 02:51:23;;;;;;;5.38;4.68;;;;;;;13.67;100.00;101203.56;5270761;28;20050;-74
2023/08/29 02:53:55;;;;;;;4.50;4.07;;;;;;;13.67;100.00;101200.91;5270998;28;20062;-73
2023/08/29 02:56:26;;;;;;;4.70;4.30;;;;;;;13.60;100.00;101192.78;5267666;28;20060;-74
2023/08/29 02:58:57;;;;;;;5.43;4.80;;;;;;;13.63;100.00;101191.63;5269117;28;20031;-74
2023/08/29 03:01:28;;;;;;;5.57;4.88;;;;;;;13.65;100.00;101189.72;5263019;28;20036;-73
2023/08/29 03:04:00;;;;;;;6.70;4.68;;;;;;;13.59;100.00;101188.47;5256387;28;20074;-74
2023/08/29 03:06:31;;;;;;;8.30;5.03;;;;;;;13.57;100.00;101197.50;5269551;28;20094;-73
2023/08/29 03:09:03;;;;;;;6.40;5.00;;;;;;;13.55;100.00;101200.25;5270886;28;20034;-75
2023/08/29 03:11:34;;;;;;;5.80;4.43;;;;;;;13.57;100.00;101205.38;5274044;28;20097;-75
2023/08/29 03:14:05;;;;;;;5.88;4.70;;;;;;;13.56;100.00;101201.94;5273911;28;20032;-73
2023/08/29 03:16:37;;;;;;;5.20;4.70;;;;;;;13.57;100.00;101190.41;5273153;28;20027;-73
2023/08/29 03:19:08;;;;;;;5.50;4.82;;;;;;;13.58;100.00;101193.88;5270242;28;20498;-73
2023/08/29 03:21:39;;;;;;;5.55;5.05;;;;;;;13.58;100.00;101199.16;5268110;28;20051;-74
2023/08/29 03:24:10;;;;;;;5.70;4.93;;;;;;;13.59;100.00;101195.53;5272639;28;20112;-73
2023/08/29 03:26:42;;;;;;;7.57;5.07;;;;;;;13.58;100.00;101193.88;5268649;28;20063;-73
2023/08/29 03:29:13;;;;;;;6.75;4.88;;;;;;;13.61;100.00;101198.88;5271730;28;20024;-73
2023/08/29 03:31:45;;;;;;;4.78;4.32;;;;;;;13.63;100.00;101196.91;5267913;28;20436;-73
2023/08/29 03:34:16;;;;;;;5.82;5.30;;;;;;;13.60;100.00;101194.59;5267892;28;20417;-74
2023/08/29 03:36:47;;;;;;;5.65;5.05;;;;;;;13.56;100.00;101186.13;5271953;28;20043;-74
2023/08/29 03:39:18;;;;;;;5.43;4.95;;;;;;;13.58;100.00;101184.19;5271427;28;20186;-73
2023/08/29 03:41:50;;;;;;;5.55;5.05;;;;;;;13.61;100.00;101183.06;5270415;28;20316;-75
2023/08/29 03:44:21;;;;;;;5.30;4.72;;;;;;;13.62;100.00;101179.47;5267972;28;20023;-73
2023/08/29 03:46:52;;;;;;;7.55;5.13;;;;;;;13.63;100.00;101181.09;5269703;28;20024;-75
2023/08/29 03:49:24;;;;;;;6.40;5.13;;;;;;;13.61;100.00;101173.38;5271936;28;20072;-73
2023/08/29 03:51:55;;;;;;;6.30;5.60;;;;;;;13.61;100.00;101162.00;5267763;28;20083;-73
2023/08/29 03:54:27;;;;;;;6.50;5.10;;;;;;;13.63;100.00;101157.41;5270323;28;20024;-73
2023/08/29 03:56:58;;;;;;;6.07;5.47;;;;;;;13.61;100.00;101146.22;5269042;28;20093;-73
2023/08/29 03:59:30;;;;;;;6.78;5.40;;;;;;;13.61;100.00;101154.09;5273851;28;20028;-74
2023/08/29 04:02:06;;;;;;;5.97;5.28;;;;;;;13.57;100.00;101153.56;5274170;28;21025;-74
2023/08/29 04:04:37;;;;;;;6.88;5.30;;;;;;;13.54;100.00;101150.38;5274724;28;20024;-75
2023/08/29 04:07:08;;;;;;;5.13;4.63;;;;;;;13.50;100.00;101152.47;5273783;28;20032;-73
2023/08/29 04:09:39;;;;;;;6.07;4.90;;;;;;;13.43;100.00;101146.09;5276617;28;20024;-73
2023/08/29 04:12:11;;;;;;;5.63;5.00;;;;;;;13.47;100.00;101159.81;5274144;28;20059;-73
2023/08/29 04:14:42;;;;;;;7.28;5.18;;;;;;;13.43;100.00;101153.16;5271302;28;20055;-73
2023/08/29 04:17:13;;;;;;;6.07;5.47;;;;;;;13.43;100.00;101142.66;5274102;28;20561;-73
2023/08/29 04:19:44;;;;;;;6.30;5.60;;;;;;;13.39;100.00;101148.19;5272221;28;20066;-73
2023/08/29 04:22:16;;;;;;;6.07;5.47;;;;;;;13.42;100.00;101148.88;5277127;28;20457;-73
2023/08/29 04:24:48;;;;;;;5.95;5.35;;;;;;;13.35;100.00;101141.53;5274706;28;20048;-73
2023/08/29 04:27:20;;;;;;;6.75;5.50;;;;;;;13.33;100.00;101146.13;5273711;28;20094;-73
2023/08/29 04:29:51;;;;;;;7.20;5.65;;;;;;;13.32;100.00;101141.81;5274333;28;20119;-73
2023/08/29 04:32:23;;;;;;;6.28;5.68;;;;;;;13.30;100.00;101138.50;5274541;28;20064;-73
2023/08/29 04:34:55;;;;;;;6.90;5.78;;;;;;;13.29;100.00;101134.19;5278659;28;20016;-73
2023/08/29 04:37:26;;;;;;;5.95;5.15;;;;;;;13.26;100.00;101131.03;5275414;28;21127;-73
2023/08/29 04:39:58;;;;;;;6.35;5.30;;;;;;;13.24;100.00;101130.34;5276114;28;20027;-73
2023/08/29 04:42:29;;;;;;;7.40;5.78;;;;;;;13.23;100.00;101133.94;5272160;28;20024;-73
2023/08/29 04:45:06;;;;;;;8.65;5.35;;;;;;;13.27;100.00;101141.41;5271218;28;20025;-73
2023/08/29 04:47:38;;;;;;;7.80;5.75;;;;;;;13.19;100.00;101125.47;5279215;28;20020;-73
2023/08/29 04:50:09;;;;;;;8.60;6.43;;;;;;;13.23;100.00;101121.63;5273127;28;20366;-73
2023/08/29 04:52:41;;;;;;;9.13;5.43;;;;;;;13.21;100.00;101127.97;5277083;28;21322;-73
2023/08/29 04:55:13;;;;;;;6.30;5.15;;;;;;;13.09;100.00;101108.88;5273308;28;20024;-74
2023/08/29 04:57:44;;;;;;;10.60;5.95;;;;;;;13.19;100.00;101125.47;5270998;28;20063;-74
2023/08/29 05:00:15;;;;;;;8.00;5.70;;;;;;;13.23;100.00;101134.78;5276783;28;20493;-74
2023/08/29 05:02:46;;;;;;;7.57;5.75;;;;;;;13.27;100.00;101133.53;5270704;28;20085;-74
2023/08/29 05:05:18;;;;;;;6.75;6.05;;;;;;;13.32;100.00;101136.56;5274973;28;20032;-74
2023/08/29 05:07:50;;;;;;;6.85;6.03;;;;;;;13.33;100.00;101132.13;5272332;28;20833;-74
2023/08/29 05:10:21;;;;;;;12.18;6.57;;;;;;;13.36;100.00;101132.66;5278167;28;20047;-74
2023/08/29 05:12:52;;;;;;;6.50;5.80;;;;;;;13.37;100.00;101129.09;5275504;28;20038;-74
2023/08/29 05:15:24;;;;;;;7.10;6.40;;;;;;;13.43;100.00;101126.84;5268866;28;20078;-74
2023/08/29 05:17:55;;;;;;;6.65;6.03;;;;;;;13.48;100.00;101133.34;5276497;28;20031;-74
2023/08/29 05:20:26;;;;;;;7.82;6.22;;;;;;;13.46;100.00;101126.56;5279727;28;20075;-74
2023/08/29 05:22:58;;;;;;;7.72;6.60;;;;;;;13.55;100.00;101123.91;5278425;28;20285;-74
2023/08/29 05:25:29;;;;;;;7.88;6.50;;;;;;;13.58;100.00;101121.00;5256012;28;20064;-74
2023/08/29 05:28:00;;;;;;;8.73;6.40;;;;;;;13.64;100.00;101124.88;5276415;28;20028;-74
2023/08/29 05:30:34;;;;;;;11.68;6.50;;;;;;;13.71;100.00;101122.47;5280591;28;20085;-74
2023/08/29 05:33:06;;;;;;;9.98;6.97;;;;;;;13.73;100.00;101124.00;5273692;28;20024;-74
2023/08/29 05:35:37;;;;;;;7.97;6.13;;;;;;;13.79;100.00;101126.06;5263934;28;20038;-74
2023/08/29 05:38:08;;;;;;;9.20;7.22;;;;;;;13.83;100.00;101137.16;5271197;28;20082;-74
2023/08/29 05:40:40;;;;;;;11.90;6.78;;;;;;;13.81;100.00;101118.84;5277024;28;20023;-74
2023/08/29 05:43:12;;;;;;;7.03;6.07;;;;;;;13.94;100.00;101129.06;5272202;28;20039;-74
2023/08/29 05:45:43;;;;;;;8.20;5.57;;;;;;;13.96;100.00;101123.63;5277618;28;20024;-74
2023/08/29 05:48:14;;;;;;;8.50;5.95;;;;;;;14.02;100.00;101125.69;5277646;28;20027;-74
2023/08/29 05:50:51;;;;;;;6.93;6.10;;;;;;;14.12;100.00;101129.94;5270215;28;20047;-74
2023/08/29 05:53:22;;;;;;;6.32;5.72;;;;;;;14.07;100.00;101136.63;5277540;28;20043;-74
2023/08/29 05:55:53;;;;;;;7.05;5.93;;;;;;;14.12;100.00;101129.94;5273201;28;20024;-73
2023/08/29 05:58:25;;;;;;;8.65;6.60;;;;;;;14.21;100.00;101136.16;5270615;28;20124;-74
2023/08/29 06:00:57;;;;;;;7.53;6.70;;;;;;;14.26;100.00;101131.25;5274621;28;20030;-73
2023/08/29 06:03:28;;;;;;;7.72;6.22;;;;;;;14.33;100.00;101134.97;5275612;28;20028;-74
2023/08/29 06:05:59;;;;;;;11.00;6.97;;;;;;;14.35;100.00;101133.00;5271435;28;20059;-74
2023/08/29 06:08:33;;;;;;;9.63;7.35;;;;;;;14.41;100.00;101136.03;5272741;28;20028;-74
2023/08/29 06:11:06;;;;;;;10.63;6.85;;;;;;;14.39;100.00;101124.78;5274296;28;20024;-74
2023/08/29 06:13:37;;;;;;;9.73;6.83;;;;;;;14.54;100.00;101131.25;5271180;28;20059;-74
2023/08/29 06:16:08;;;;;;;9.70;7.72;;;;;;;14.55;100.00;101128.50;5282729;28;20302;-73
2023/08/29 06:18:39;;;;;;;10.77;8.10;;;;;;;14.65;100.00;101124.94;5281378;28;20028;-73
2023/08/29 06:21:12;;;;;;;11.52;8.25;;;;;;;14.69;100.00;101121.84;5274206;28;20050;-74
2023/08/29 06:23:43;;;;;;;13.00;8.13;;;;;;;14.73;100.00;101110.03;5259396;28;20074;-74
2023/08/29 06:26:15;;;;;;;10.00;8.57;;;;;;;14.86;100.00;101120.22;5269204;28;20406;-74
2023/08/29 06:28:47;;;;;;;8.70;7.80;;;;;;;14.92;100.00;101122.22;5253005;28;20075;-74
2023/08/29 06:31:18;;;;;;;9.30;8.40;;;;;;;15.06;100.00;101123.50;5271438;28;20822;-74
2023/08/29 06:33:49;;;;;;;9.95;9.05;;;;;;;15.09;100.00;101128.47;5263927;28;20469;-74
2023/08/29 06:36:21;;;;;;;9.38;8.43;;;;;;;15.17;100.00;101127.72;5275713;28;20489;-73
2023/08/29 06:38:53;;;;;;;9.38;8.38;;;;;;;15.24;100.00;101129.59;5275484;28;20023;-74
2023/08/29 06:41:24;;;;;;;9.27;8.38;;;;;;;15.34;100.00;101126.84;5269545;28;20462;-74
2023/08/29 06:43:56;;;;;;;9.32;8.38;;;;;;;15.38;100.00;101122.94;5269654;28;20049;-73
2023/08/29 06:46:27;;;;;;;9.30;8.40;;;;;;;15.44;100.00;101124.13;5271987;28;20025;-74
2023/08/29 06:48:59;;;;;;;9.48;8.23;;;;;;;15.62;100.00;101126.72;5275350;28;20406;-74
2023/08/29 06:51:31;;;;;;;9.35;8.50;;;;;;;15.72;100.00;101124.81;5270196;28;20028;-73
2023/08/29 06:54:03;;;;;;;9.35;8.40;;;;;;;15.76;100.00;101132.28;5273859;28;20024;-73
2023/08/29 06:56:34;;;;;;;11.95;8.90;;;;;;;15.89;100.00;101129.19;5268487;28;20523;-74
2023/08/29 06:59:05;;;;;;;10.00;8.57;;;;;;;15.93;100.00;101130.53;5274927;28;20039;-73
2023/08/29 07:01:40;;;;;;;9.90;8.77;;;;;;;15.93;100.00;101132.34;5271196;28;20028;-73
2023/08/29 07:04:11;;;;;;;9.90;8.90;;;;;;;16.00;100.00;101128.91;5275622;28;20131;-74
2023/08/29 07:06:42;;;;;;;11.57;8.52;;;;;;;16.07;100.00;101136.22;5271079;28;20434;-74
2023/08/29 07:09:16;;;;;;;10.40;9.05;;;;;;;16.13;100.00;101135.56;5271095;28;20775;-73
2023/08/29 07:11:47;;;;;;;9.02;8.23;;;;;;;16.24;100.00;101141.41;5272392;28;20287;-74
2023/08/29 07:14:18;;;;;;;9.02;8.13;;;;;;;16.28;100.00;101136.63;5265434;28;20406;-74
2023/08/29 07:16:50;;;;;;;9.20;8.25;;;;;;;16.48;100.00;101139.84;5267307;28;20028;-74
2023/08/29 07:19:21;;;;;;;14.73;9.13;;;;;;;16.54;100.00;101140.00;5269604;28;20028;-74
2023/08/29 07:21:52;;;;;;;9.85;8.27;;;;;;;16.63;100.00;101134.72;5271910;28;20020;-74
2023/08/29 07:24:24;;;;;;;10.23;8.10;;;;;;;16.71;100.00;101132.94;5276325;28;20047;-73
2023/08/29 07:26:56;;;;;;;9.70;8.70;;;;;;;16.72;100.00;101139.06;5274163;28;20275;-74
2023/08/29 07:29:27;;;;;;;8.75;7.93;;;;;;;16.84;100.00;101139.59;5266074;28;20036;-74
2023/08/29 07:31:58;;;;;;;9.85;8.50;;;;;;;16.87;100.00;101140.09;5278212;28;20062;-74
2023/08/29 07:34:30;;;;;;;9.32;8.27;;;;;;;16.90;100.00;101139.78;5271540;28;20053;-74
2023/08/29 07:37:01;;;;;;;9.15;7.72;;;;;;;17.11;100.00;101141.91;5272469;28;20039;-74
2023/08/29 07:39:32;;;;;;;9.07;7.75;;;;;;;17.15;100.00;101137.94;5267399;28;20024;-74
2023/08/29 07:42:04;;;;;;;8.75;7.95;;;;;;;17.30;100.00;101145.22;5269965;28;20853;-74
2023/08/29 07:44:35;;;;;;;8.65;7.85;;;;;;;17.42;100.00;101143.88;5270932;28;20468;-74
2023/08/29 07:47:06;;;;;;;8.85;7.53;;;;;;;17.46;100.00;101147.84;5272220;28;20478;-74
2023/08/29 07:49:38;;;;;;;8.63;7.35;;;;;;;17.52;100.00;101149.84;5275408;28;20432;-74
2023/08/29 07:52:09;;;;;;;9.10;7.55;;;;;;;17.62;100.00;101154.97;5268118;28;20025;-74
2023/08/29 07:54:41;;;;;;;8.32;7.07;;;;;;;17.65;100.00;101150.16;5270778;28;20039;-74
2023/08/29 07:57:12;;;;;;;9.73;7.47;;;;;;;17.79;100.00;101150.47;5268662;28;20024;-74
2023/08/29 07:59:44;;;;;;;9.93;6.60;;;;;;;17.91;100.00;101147.28;5266062;28;20074;-74
2023/08/29 08:02:15;;;;;;;8.00;6.97;;;;;;;17.93;100.00;101147.94;5268508;28;20024;-74
2023/08/29 08:04:46;;;;;;;7.18;6.47;;;;;;;18.00;100.00;101134.84;5269986;28;20031;-74
2023/08/29 08:07:18;;;;;;;8.30;6.30;;;;;;;18.10;100.00;101140.75;5274116;28;20210;-74
2023/08/29 08:09:49;;;;;;;12.38;7.43;;;;;;;18.15;100.00;101143.72;5268494;28;20485;-74
2023/08/29 08:12:20;;;;;;;11.75;6.97;;;;;;;18.22;100.00;101143.84;5269731;28;20478;-74
2023/08/29 08:14:53;;;;;;;9.32;7.05;;;;;;;18.27;100.00;101140.69;5270350;28;20478;-74
2023/08/29 08:17:24;;;;;;;8.63;7.32;;;;;;;18.29;100.00;101126.25;5271572;28;20028;-74
2023/08/29 08:19:55;;;;;;;9.88;6.78;;;;;;;18.42;100.00;101144.28;5279310;28;20054;-74
2023/08/29 08:22:26;;;;;;;6.13;5.50;;;;;;;18.51;100.00;101145.03;5268840;28;20625;-74
2023/08/29 08:24:58;;;;;;;5.85;5.20;;;;;;;18.62;100.00;101136.69;5271306;28;20433;-75
2023/08/29 08:27:29;;;;;;;6.28;4.45;;;;;;;18.71;100.00;101144.47;5279300;28;20432;-74
2023/08/29 08:30:03;;;;;;;5.85;5.28;;;;;;;18.83;100.00;101136.09;5276705;28;20462;-74
2023/08/29 08:32:35;;;;;;;6.03;5.43;;;;;;;18.95;100.00;101145.28;5278998;28;20115;-74
2023/08/29 08:35:08;;;;;;;8.97;5.93;;;;;;;19.09;100.00;101136.56;5271761;28;20425;-74
2023/08/29 08:37:39;;;;;;;6.60;6.00;;;;;;;19.14;100.00;101131.53;5272044;28;20028;-74
2023/08/29 08:40:11;;;;;;;6.20;5.10;;;;;;;19.25;100.00;101137.41;5270847;28;20477;-74
2023/08/29 08:42:44;;;;;;;5.77;5.17;;;;;;;19.34;100.00;101147.78;5274172;28;20081;-74
2023/08/29 08:45:16;;;;;;;7.75;4.88;;;;;;;19.34;100.00;101147.78;5276970;28;20020;-74
2023/08/29 08:47:48;;;;;;;4.63;4.10;;;;;;;19.38;100.00;101140.25;5280134;28;20024;-74
2023/08/29 08:50:19;;;;;;;5.07;4.07;;;;;;;19.44;100.00;101140.38;5270486;28;20060;-74
2023/08/29 08:52:51;;;;;;;3.60;2.90;;;;;;;19.39;100.00;101133.94;5272299;28;20024;-74
2023/08/29 08:55:22;;;;;;;3.93;3.07;;;;;;;19.58;100.00;101137.91;5275829;28;20040;-74
2023/08/29 08:57:54;;;;;;;3.80;3.03;;;;;;;19.62;100.00;101140.06;5281395;28;20767;-74
2023/08/29 09:00:25;;;;;;;5.13;3.45;;;;;;;19.71;100.00;101145.28;5270175;28;20103;-74
2023/08/29 09:02:58;;;;;;;4.40;2.87;;;;;;;19.68;100.00;101147.28;5272671;28;20371;-75
2023/08/29 09:05:29;;;;;;;5.18;2.78;;;;;;;19.70;100.00;101139.16;5271293;28;20024;-74
2023/08/29 09:08:01;;;;;;;4.83;3.33;;;;;;;19.95;100.00;101138.88;5273361;28;20519;-74
2023/08/29 09:10:33;;;;;;;4.57;2.80;;;;;;;20.14;100.00;101144.44;5274118;28;20481;-74
2023/08/29 09:13:04;;;;;;;3.77;2.73;;;;;;;20.27;100.00;101146.44;5280783;28;20016;-74
2023/08/29 09:15:37;;;;;;;4.43;3.03;;;;;;;20.45;100.00;101138.03;5272343;28;20043;-74
2023/08/29 09:18:13;;;;;;;3.97;2.80;;;;;;;20.62;100.00;101147.47;5271006;28;20020;-74
2023/08/29 09:20:44;;;;;;;2.58;2.20;;;;;;;20.64;100.00;101150.75;5264587;28;20055;-74
2023/08/29 09:23:26;;;;;;;5.17;2.40;;;;;;;20.94;100.00;101148.00;5268143;28;20043;-74
2023/08/29 09:25:58;;;;;;;6.80;2.85;;;;;;;20.79;100.00;101149.91;5275444;28;20024;-74
2023/08/29 09:28:30;;;;;;;2.70;2.20;;;;;;;20.80;100.00;101156.91;5274334;28;20063;-74
2023/08/29 09:31:06;;;;;;;4.53;2.67;;;;;;;20.88;100.00;101154.09;5275484;28;20063;-74
2023/08/29 09:33:39;;;;;;;3.53;2.60;;;;;;;20.88;100.00;101151.44;5273896;28;20029;-74
2023/08/29 09:36:10;;;;;;;;;;;;;;;21.71;100.00;101152.53;5258235;28;20076;-74
2023/08/29 09:38:41;;;;;;;5.13;2.67;;;;;;;21.00;100.00;101154.41;5269462;28;20369;-75
2023/08/29 09:41:16;;;;;;;6.17;3.20;;;;;;;20.95;100.00;101160.31;5270484;28;20032;-74
2023/08/29 09:43:47;;;;;;;4.88;2.35;;;;;;;20.83;100.00;101153.81;5276118;28;20401;-74
2023/08/29 09:46:26;;;;;;;5.63;2.17;;;;;;;21.03;100.00;101149.53;5271022;28;20500;-74
2023/08/29 09:48:57;;;;;;;3.50;2.08;;;;;;;20.90;100.00;101141.41;5269264;28;20037;-75
2023/08/29 09:51:30;;;;;;;3.97;2.40;;;;;;;21.03;100.00;101141.53;5274872;28;20039;-74
2023/08/29 09:54:05;;;;;;;4.13;2.33;;;;;;;20.91;100.00;101140.41;5270074;28;20032;-74
2023/08/29 09:56:41;;;;;;;3.97;2.42;;;;;;;21.01;100.00;101137.41;5270038;28;20027;-75
2023/08/29 09:59:17;;;;;;;3.17;1.88;;;;;;;21.13;100.00;101133.19;5274417;28;20087;-74
2023/08/29 10:01:51;;;;;;;5.03;2.03;;;;;;;21.12;100.00;101134.22;5271571;28;20028;-75
2023/08/29 10:04:25;;;;;;;5.28;2.28;;;;;;;21.15;100.00;101133.84;5268147;28;20050;-74
2023/08/29 10:06:59;;;;;;;3.83;2.20;;;;;;;21.24;100.00;101137.19;5273637;28;20025;-75
2023/08/29 10:09:31;;;;;;;4.88;2.42;;;;;;;21.28;100.00;101123.28;5270098;28;20122;-75
2023/08/29 10:12:04;;;;;;;3.35;2.30;;;;;;;21.22;100.00;101125.91;5270122;28;20493;-74
2023/08/29 10:14:36;;;;;;;4.43;2.35;;;;;;;21.31;100.00;101130.06;5272666;28;20381;-75
2023/08/29 10:17:10;;;;;;;3.17;2.30;;;;;;;21.30;100.00;101126.59;5270211;28;20713;-74
2023/08/29 10:19:43;;;;;;;4.63;2.67;;;;;;;21.20;100.00;101126.09;5275483;28;20505;-74
2023/08/29 10:22:16;;;;;;;4.63;2.20;;;;;;;21.26;100.00;101122.66;5268122;28;20300;-75
2023/08/29 10:24:50;;;;;;;5.65;2.78;;;;;;;21.54;100.00;101129.84;5267604;28;20062;-74
2023/08/29 10:27:21;;;;;;;3.88;2.30;;;;;;;21.55;100.00;101131.47;5270184;28;20071;-74
2023/08/29 10:29:53;;;;;;;3.63;2.50;;;;;;;21.49;100.00;101122.44;5272847;28;20118;-74
2023/08/29 10:32:26;;;;;;;3.67;2.37;;;;;;;21.54;100.00;101124.50;5266971;28;20505;-74
2023/08/29 10:34:57;;;;;;;3.47;2.28;;;;;;;21.49;100.00;101124.28;5272837;28;20033;-74
2023/08/29 10:37:29;;;;;;;3.57;2.13;;;;;;;21.55;100.00;101118.97;5271077;28;20104;-74
2023/08/29 10:40:11;;;;;;;2.57;1.80;;;;;;;21.83;100.00;101118.13;5273324;28;20047;-74
2023/08/29 10:42:54;;;;;;;3.42;1.77;;;;;;;21.88;100.00;101118.34;5263500;28;20074;-74
2023/08/29 10:45:44;;;;;;;;;;;;;;;22.55;100.00;101109.59;5273357;28;20032;-74
2023/08/29 10:48:20;;;;;;;5.53;2.17;;;;;;;21.73;100.00;101117.66;5252886;28;19915;-74
2023/08/29 10:51:07;;;;;;;4.35;1.73;;;;;;;22.16;100.00;101109.47;5269110;28;20052;-74
2023/08/29 10:53:56;;;;;;;3.25;1.20;;;;;;;22.06;100.00;101102.63;5272209;28;20028;-75
2023/08/29 10:56:39;;;;;;;3.30;1.40;;;;;;;22.19;100.00;101101.88;5278343;28;20018;-74
2023/08/29 10:59:32;;;;;;;3.58;1.50;;;;;;;22.49;100.00;101089.03;5271330;28;20043;-74
2023/08/29 11:02:29;;;;;;;3.80;1.77;;;;;;;22.74;100.00;101091.13;5270079;28;20761;-74
2023/08/29 11:05:03;;;;;;;2.88;1.42;;;;;;;22.72;100.00;101098.50;5273301;28;20123;-74
2023/08/29 11:07:34;;;;;;;3.92;1.70;;;;;;;22.85;100.00;101090.53;5277940;28;20077;-75
2023/08/29 11:10:22;;;;;;;2.40;1.37;;;;;;;23.27;100.00;101091.97;5271848;28;20032;-75
2023/08/29 11:13:11;;;;;;;3.33;1.50;;;;;;;23.50;100.00;101088.84;5277775;28;20032;-75
2023/08/29 11:15:49;;;;;;;4.05;1.33;;;;;;;23.52;95.97;101085.94;5266701;28;20497;-75
2023/08/29 11:18:32;;;;;;;2.47;1.58;;;;;;;23.39;94.05;101076.09;5268053;28;20036;-75
2023/08/29 11:21:05;;;;;;;3.00;1.50;;;;;;;23.30;93.64;101080.84;5273847;28;20047;-75
2023/08/29 11:23:42;;;;;;;4.18;1.30;;;;;;;23.04;88.20;101071.00;5274955;28;20029;-75
2023/08/29 11:26:14;;;;;;;3.00;1.10;;;;;;;23.16;94.08;101073.06;5274701;28;20024;-75
2023/08/29 11:28:46;;;;;;;3.35;1.35;;;;;;;23.25;85.78;101071.81;5267858;28;20038;-75
2023/08/29 11:31:18;;;;;;;2.90;1.20;;;;;;;23.38;87.17;101069.13;5266570;28;20024;-75
2023/08/29 11:33:50;;;;;;;1.90;0.80;;;;;;;23.58;79.88;101073.59;5267338;28;20443;-75
2023/08/29 11:36:21;;;;;;;2.27;1.00;;;;;;;23.62;80.79;101067.59;5272900;28;20032;-75
2023/08/29 11:38:52;;;;;;;3.20;0.87;;;;;;;23.77;85.16;101067.38;5274428;28;20062;-75
2023/08/29 11:41:27;;;;;;;5.27;1.33;;;;;;;23.71;80.98;101066.34;5271510;28;20549;-75